Time;durP1;ratioP1;P1;durP2;ratioP2;P2;SDS_P1;SDS_P2;PMS_P1;PMS_P2;Temp;Humidity;BMP_temperature;BMP_pressure;BME280_temperature;BME280_humidity;BME280_pressure;Samples;Min_cycle;Max_cycle;Signal;HPM_P1;HPM_P2
2023/09/19 00:00:27;;;;;;;0.73;0.73;;;23.30;77.90;;;;;;5065296;28;43915;-70
2023/09/19 00:02:57;;;;;;;0.83;0.70;;;23.20;77.80;;;;;;5060517;28;43496;-69
2023/09/19 00:05:27;;;;;;;0.80;0.80;;;23.20;77.90;;;;;;5064210;28;44408;-69
2023/09/19 00:07:58;;;;;;;0.90;0.90;;;23.10;78.30;;;;;;5066216;28;43927;-69
2023/09/19 00:10:26;;;;;;;0.70;0.70;;;23.10;78.30;;;;;;5066125;28;43630;-70
2023/09/19 00:12:56;;;;;;;0.70;0.70;;;23.10;78.30;;;;;;5067080;28;43429;-70
2023/09/19 00:15:24;;;;;;;0.63;0.63;;;23.10;78.10;;;;;;5058556;28;43382;-70
2023/09/19 00:17:53;;;;;;;0.80;0.80;;;23.10;78.60;;;;;;5067477;28;43451;-70
2023/09/19 00:20:23;;;;;;;0.80;0.80;;;23.10;78.70;;;;;;5064473;28;43917;-70
2023/09/19 00:22:51;;;;;;;0.70;0.70;;;23.20;78.40;;;;;;5064029;28;43441;-70
2023/09/19 00:25:20;;;;;;;0.70;0.70;;;23.30;77.90;;;;;;5065177;28;43430;-70
2023/09/19 00:27:49;;;;;;;0.73;0.73;;;23.40;77.40;;;;;;5046328;28;43579;-70
2023/09/19 00:30:21;;;;;;;0.80;0.80;;;23.50;77.20;;;;;;5045493;28;45415;-70
2023/09/19 00:32:49;;;;;;;0.90;0.90;;;23.40;77.00;;;;;;5048068;28;43367;-70
2023/09/19 00:35:18;;;;;;;0.80;0.80;;;23.40;77.20;;;;;;5064190;28;43436;-71
2023/09/19 00:37:46;;;;;;;0.70;0.70;;;23.30;77.50;;;;;;5064342;28;43678;-71
2023/09/19 00:40:15;;;;;;;0.83;0.83;;;23.30;77.70;;;;;;5070154;28;43615;-69
2023/09/19 00:42:43;;;;;;;0.80;0.80;;;23.30;77.80;;;;;;5044372;28;43873;-72
2023/09/19 00:45:12;;;;;;;0.70;0.70;;;23.20;77.70;;;;;;5051673;28;43983;-70
2023/09/19 00:47:42;;;;;;;0.90;0.90;;;23.20;77.90;;;;;;5066557;28;43428;-70
2023/09/19 00:50:11;;;;;;;0.63;0.63;;;23.10;78.30;;;;;;5063106;28;45882;-70
2023/09/19 00:52:39;;;;;;;0.83;0.83;;;23.10;78.30;;;;;;5051209;28;44792;-71
2023/09/19 00:55:08;;;;;;;0.77;0.77;;;23.10;78.20;;;;;;5045409;28;43386;-71
2023/09/19 00:57:38;;;;;;;0.70;0.70;;;23.10;78.20;;;;;;5050645;28;43467;-69
2023/09/19 01:00:12;;;;;;;0.80;0.80;;;23.00;78.60;;;;;;5050248;28;45379;-69
2023/09/19 01:02:43;;;;;;;0.80;0.80;;;23.00;78.60;;;;;;5057134;28;44273;-67
2023/09/19 01:05:13;;;;;;;0.77;0.77;;;23.00;78.60;;;;;;5085229;28;43641;-68
2023/09/19 01:07:41;;;;;;;0.80;0.80;;;23.00;78.40;;;;;;5094539;27;43522;-70
2023/09/19 01:10:10;;;;;;;0.63;0.63;;;23.00;78.80;;;;;;5076319;28;45824;-69
2023/09/19 01:12:46;;;;;;;0.90;0.90;;;23.00;78.80;;;;;;5077473;28;45337;-69
2023/09/19 01:15:18;;;;;;;0.80;0.80;;;23.10;78.50;;;;;;5086197;28;43471;-69
2023/09/19 01:17:50;;;;;;;0.70;0.70;;;23.20;77.90;;;;;;5075115;28;43408;-69
2023/09/19 01:20:24;;;;;;;0.60;0.60;;;23.40;77.30;;;;;;5076730;28;46256;-68
2023/09/19 01:23:02;;;;;;;0.70;0.70;;;23.50;77.00;;;;;;5072913;28;44356;-68
2023/09/19 01:25:46;;;;;;;0.80;0.80;;;23.50;77.00;;;;;;5077175;28;43432;-69
2023/09/19 01:28:26;;;;;;;0.70;0.70;;;23.40;77.00;;;;;;5092055;28;43472;-70
2023/09/19 01:30:58;;;;;;;0.60;0.60;;;23.30;77.50;;;;;;5088452;28;45973;-68
2023/09/19 01:33:34;;;;;;;0.80;0.80;;;23.30;77.50;;;;;;5087360;28;44739;-68
2023/09/19 01:36:01;;;;;;;0.80;0.80;;;23.20;77.60;;;;;;5074219;28;43792;-68
2023/09/19 01:38:29;;;;;;;0.70;0.70;;;23.20;77.60;;;;;;5071108;28;43434;-69
2023/09/19 01:40:59;;;;;;;0.80;0.80;;;23.10;78.00;;;;;;5071173;28;45714;-68
2023/09/19 01:43:32;;;;;;;0.80;0.80;;;23.10;78.20;;;;;;5090681;28;43960;-68
2023/09/19 01:46:05;;;;;;;0.70;0.70;;;23.10;78.20;;;;;;5076167;28;43479;-69
2023/09/19 01:48:38;;;;;;;0.77;0.77;;;23.00;78.00;;;;;;5072564;28;43596;-69
2023/09/19 01:51:07;;;;;;;0.67;0.67;;;23.00;78.30;;;;;;5076348;28;45374;-69
2023/09/19 01:53:37;;;;;;;0.80;0.80;;;23.00;78.60;;;;;;5070725;28;44676;-68
2023/09/19 01:56:12;;;;;;;0.80;0.80;;;23.10;78.50;;;;;;5093745;28;43348;-68
2023/09/19 01:58:42;;;;;;;0.80;0.80;;;23.20;78.00;;;;;;5090195;28;43467;-69
2023/09/19 02:01:15;;;;;;;0.60;0.60;;;23.30;77.50;;;;;;5076741;28;45816;-68
2023/09/19 02:03:44;;;;;;;0.70;0.70;;;23.40;77.30;;;;;;5086736;28;44689;-68
2023/09/19 02:06:15;;;;;;;0.90;0.90;;;23.40;77.40;;;;;;5074959;28;43451;-67
2023/09/19 02:08:44;;;;;;;0.70;0.70;;;23.30;77.30;;;;;;5069756;28;43514;-69
2023/09/19 02:11:12;;;;;;;0.60;0.60;;;23.20;77.80;;;;;;5076872;28;45725;-68
2023/09/19 02:13:41;;;;;;;0.83;0.83;;;23.20;77.90;;;;;;5075283;28;44445;-69
2023/09/19 02:16:10;;;;;;;0.63;0.63;;;23.20;78.00;;;;;;5088140;28;43422;-69
2023/09/19 02:18:40;;;;;;;0.80;0.80;;;23.10;77.90;;;;;;5076918;28;43429;-69
2023/09/19 02:21:09;;;;;;;0.73;0.73;;;23.10;78.20;;;;;;5090955;28;43875;-70
2023/09/19 02:23:39;;;;;;;0.80;0.80;;;23.00;78.40;;;;;;5093107;28;43440;-69
2023/09/19 02:26:08;;;;;;;0.77;0.77;;;23.00;78.40;;;;;;5074679;28;43400;-69
2023/09/19 02:28:36;;;;;;;0.70;0.70;;;23.00;78.40;;;;;;5087787;28;43416;-69
2023/09/19 02:31:05;;;;;;;0.90;0.90;;;23.00;78.30;;;;;;5089859;28;43838;-69
2023/09/19 02:33:33;;;;;;;0.80;0.80;;;23.00;78.80;;;;;;5092150;27;43312;-70
2023/09/19 02:36:03;;;;;;;0.70;0.70;;;23.00;78.60;;;;;;5072343;28;43401;-69
2023/09/19 02:38:32;;;;;;;0.73;0.73;;;23.10;78.30;;;;;;5089735;28;43409;-69
2023/09/19 02:41:00;;;;;;;0.70;0.70;;;23.20;77.80;;;;;;5094118;28;43829;-69
2023/09/19 02:43:28;;;;;;;0.60;0.60;;;23.40;77.40;;;;;;5071055;28;44710;-69
2023/09/19 02:45:57;;;;;;;0.70;0.70;;;23.40;77.20;;;;;;5093799;28;43494;-69
2023/09/19 02:48:25;;;;;;;0.70;0.70;;;23.30;77.20;;;;;;5081313;28;43444;-69
2023/09/19 02:50:53;;;;;;;0.77;0.77;;;23.30;77.40;;;;;;5087350;28;45517;-69
2023/09/19 02:53:23;;;;;;;0.70;0.70;;;23.20;77.80;;;;;;5074717;28;44280;-68
2023/09/19 02:55:52;;;;;;;0.70;0.70;;;23.20;77.80;;;;;;5072087;28;43356;-69
2023/09/19 02:58:21;;;;;;;0.93;0.93;;;23.20;78.00;;;;;;5093699;28;43555;-68
2023/09/19 03:00:49;;;;;;;0.70;0.70;;;23.10;77.90;;;;;;5071891;28;45614;-69
2023/09/19 03:03:18;;;;;;;0.80;0.80;;;23.00;78.20;;;;;;5092345;28;43495;-69
2023/09/19 03:05:47;;;;;;;0.70;0.70;;;23.00;78.40;;;;;;5088212;28;43451;-69
2023/09/19 03:08:18;;;;;;;0.80;0.80;;;23.00;78.30;;;;;;5073574;28;43580;-69
2023/09/19 03:10:50;;;;;;;0.83;0.83;;;23.00;78.30;;;;;;5087128;28;45568;-69
2023/09/19 03:13:18;;;;;;;0.90;0.90;;;23.00;78.40;;;;;;5073061;28;44964;-69
2023/09/19 03:15:49;;;;;;;0.70;0.70;;;22.90;78.70;;;;;;5090233;28;43395;-69
2023/09/19 03:18:21;;;;;;;0.77;0.77;;;23.00;78.60;;;;;;5079209;28;43466;-71
2023/09/19 03:20:54;;;;;;;0.90;0.90;;;23.10;78.20;;;;;;5061867;28;43853;-70
2023/09/19 03:23:23;;;;;;;0.60;0.60;;;23.30;77.70;;;;;;5048799;28;43839;-70
2023/09/19 03:25:53;;;;;;;0.80;0.80;;;23.30;77.40;;;;;;5062441;28;43462;-71
2023/09/19 03:28:21;;;;;;;0.80;0.80;;;23.30;77.30;;;;;;5061974;28;43520;-71
2023/09/19 03:31:00;;;;;;;0.70;0.70;;;23.30;77.40;;;;;;5058588;28;44158;-70
2023/09/19 03:33:31;;;;;;;0.70;0.70;;;23.20;77.70;;;;;;5041963;28;44603;-69
2023/09/19 03:36:00;;;;;;;0.70;0.70;;;23.10;78.00;;;;;;5048688;28;43441;-70
2023/09/19 03:38:29;;;;;;;0.80;0.80;;;23.10;78.70;;;;;;5063751;28;43460;-70
2023/09/19 03:40:58;;;;;;;0.70;0.70;;;23.10;78.10;;;;;;5045897;28;45708;-72
2023/09/19 03:43:26;;;;;;;0.80;0.80;;;23.00;78.10;;;;;;5065563;28;43742;-69
2023/09/19 03:45:56;;;;;;;0.90;0.90;;;23.00;78.60;;;;;;5050047;28;43479;-70
2023/09/19 03:48:24;;;;;;;0.80;0.80;;;23.00;78.50;;;;;;5061549;28;43433;-69
2023/09/19 03:50:53;;;;;;;0.60;0.60;;;23.10;78.10;;;;;;5070352;28;44036;-70
2023/09/19 03:53:21;;;;;;;0.93;0.93;;;23.20;77.90;;;;;;5063409;28;44705;-72
2023/09/19 03:55:49;;;;;;;0.80;0.80;;;23.20;77.70;;;;;;5050006;28;43429;-70
2023/09/19 03:58:20;;;;;;;0.80;0.80;;;23.20;77.90;;;;;;5042789;28;43628;-69
2023/09/19 04:00:49;;;;;;;0.77;0.77;;;23.10;78.00;;;;;;5067580;28;45496;-69
2023/09/19 04:03:20;;;;;;;0.70;0.70;;;23.10;78.00;;;;;;5059242;28;44204;-69
2023/09/19 04:05:49;;;;;;;0.80;0.80;;;23.10;78.00;;;;;;5065146;28;43388;-69
2023/09/19 04:08:17;;;;;;;0.60;0.60;;;23.10;78.00;;;;;;5043665;28;43454;-70
2023/09/19 04:10:46;;;;;;;0.70;0.70;;;23.00;78.30;;;;;;5069544;28;43862;-70
2023/09/19 04:13:15;;;;;;;0.70;0.70;;;23.00;78.40;;;;;;5067133;28;43496;-70
2023/09/19 04:15:46;;;;;;;0.77;0.77;;;23.00;78.40;;;;;;5063393;28;43428;-70
2023/09/19 04:18:14;;;;;;;0.87;0.87;;;23.00;78.30;;;;;;5048125;28;43537;-70
2023/09/19 04:20:48;;;;;;;0.90;0.90;;;22.90;78.70;;;;;;5044976;28;43983;-70
2023/09/19 04:23:16;;;;;;;1.00;1.00;;;22.90;78.70;;;;;;5051613;28;43364;-69
2023/09/19 04:25:44;;;;;;;0.70;0.70;;;23.00;79.10;;;;;;5061121;28;43722;-70
2023/09/19 04:28:12;;;;;;;0.80;0.80;;;23.20;78.00;;;;;;5050805;28;43571;-66
2023/09/19 04:30:41;;;;;;;0.67;0.67;;;23.30;77.50;;;;;;5074347;28;43961;-65
2023/09/19 04:33:11;;;;;;;0.80;0.80;;;23.30;77.20;;;;;;5075821;28;43392;-65
2023/09/19 04:35:42;;;;;;;0.90;0.90;;;23.30;78.00;;;;;;5077639;28;43567;-64
2023/09/19 04:38:10;;;;;;;0.73;0.73;;;23.20;77.30;;;;;;5077478;28;43470;-66
2023/09/19 04:40:39;;;;;;;0.70;0.70;;;23.20;77.80;;;;;;5073867;28;43587;-64
2023/09/19 04:43:07;;;;;;;1.13;0.73;;;23.10;77.90;;;;;;5073638;28;43427;-65
2023/09/19 04:45:35;;;;;;;0.70;0.70;;;23.10;78.00;;;;;;5077867;28;43872;-65
2023/09/19 04:48:04;;;;;;;0.70;0.70;;;23.10;78.00;;;;;;5073157;28;43470;-65
2023/09/19 04:50:34;;;;;;;0.90;0.90;;;23.00;78.10;;;;;;5073190;28;43958;-65
2023/09/19 04:53:03;;;;;;;0.83;0.83;;;23.00;78.50;;;;;;5069583;28;43490;-64
2023/09/19 04:55:32;;;;;;;0.70;0.70;;;23.00;78.50;;;;;;5072789;28;43443;-64
2023/09/19 04:58:00;;;;;;;0.80;0.80;;;23.00;78.40;;;;;;5070152;28;43416;-64
2023/09/19 05:00:30;;;;;;;0.80;0.80;;;22.90;78.30;;;;;;5070471;28;43688;-67
2023/09/19 05:02:58;;;;;;;0.90;0.90;;;22.90;78.70;;;;;;5069452;28;43490;-67
2023/09/19 05:05:27;;;;;;;0.80;0.80;;;22.90;78.60;;;;;;5069564;28;43862;-67
2023/09/19 05:07:59;;;;;;;0.60;0.60;;;23.00;78.20;;;;;;5071750;28;43574;-66
2023/09/19 05:10:33;;;;;;;1.10;1.10;;;23.20;77.70;;;;;;5071493;28;43917;-65
2023/09/19 05:13:02;;;;;;;0.83;0.83;;;23.30;77.30;;;;;;5055441;28;44595;-65
2023/09/19 05:15:30;;;;;;;0.73;0.73;;;23.30;77.20;;;;;;5074168;28;43957;-65
2023/09/19 05:17:58;;;;;;;1.00;1.00;;;23.30;77.30;;;;;;5061198;28;43476;-64
2023/09/19 05:20:32;;;;;;;0.97;0.97;;;23.20;77.40;;;;;;5075882;28;43744;-65
2023/09/19 05:23:02;;;;;;;0.73;0.73;;;23.10;77.70;;;;;;5054703;28;45042;-67
2023/09/19 05:25:31;;;;;;;0.90;0.90;;;23.10;77.70;;;;;;5073752;28;43443;-66
2023/09/19 05:28:00;;;;;;;0.97;0.97;;;23.10;77.70;;;;;;5074993;28;43344;-66
2023/09/19 05:30:29;;;;;;;0.90;0.90;;;23.00;77.80;;;;;;5072353;28;43887;-65
2023/09/19 05:32:57;;;;;;;0.87;0.87;;;23.00;78.10;;;;;;5073782;28;43388;-66
2023/09/19 05:35:26;;;;;;;1.00;1.00;;;22.90;78.00;;;;;;5055336;28;43317;-67
2023/09/19 05:37:55;;;;;;;0.93;0.93;;;22.90;77.80;;;;;;5075967;28;43400;-72
2023/09/19 05:40:24;;;;;;;1.00;1.00;;;22.90;77.90;;;;;;5064419;28;43604;-72
2023/09/19 05:42:52;;;;;;;0.80;0.80;;;22.90;78.00;;;;;;5065696;28;43423;-72
2023/09/19 05:45:22;;;;;;;1.00;1.00;;;22.80;77.90;;;;;;5065688;28;43416;-72
2023/09/19 05:47:51;;;;;;;1.00;1.00;;;22.90;77.70;;;;;;5065017;28;44004;-71
2023/09/19 05:50:19;;;;;;;1.10;1.10;;;23.00;77.10;;;;;;5066126;28;43835;-71
2023/09/19 05:52:52;;;;;;;1.13;1.00;;;23.10;76.60;;;;;;5071914;28;44403;-71
2023/09/19 05:55:22;;;;;;;1.03;1.03;;;23.20;76.20;;;;;;5051094;28;43427;-72
2023/09/19 05:57:52;;;;;;;1.00;1.00;;;23.30;76.00;;;;;;5065480;28;43413;-71
2023/09/19 06:00:22;;;;;;;1.30;1.30;;;23.20;76.10;;;;;;5063898;28;43815;-71
2023/09/19 06:02:53;;;;;;;1.30;1.30;;;23.20;76.60;;;;;;5068489;28;43949;-71
2023/09/19 06:05:21;;;;;;;1.10;1.10;;;23.10;76.50;;;;;;5065722;28;43489;-72
2023/09/19 06:07:50;;;;;;;1.10;1.10;;;23.10;76.70;;;;;;5068135;28;44085;-71
2023/09/19 06:10:20;;;;;;;1.30;1.30;;;23.00;76.90;;;;;;5067328;28;44042;-71
2023/09/19 06:12:48;;;;;;;1.10;1.10;;;23.00;77.20;;;;;;5063913;28;43428;-70
2023/09/19 06:15:18;;;;;;;0.90;0.90;;;22.90;77.40;;;;;;5063001;28;43440;-69
2023/09/19 06:17:48;;;;;;;1.20;1.20;;;22.90;77.40;;;;;;5066140;28;43452;-70
2023/09/19 06:20:16;;;;;;;1.00;1.00;;;22.90;78.00;;;;;;5058972;28;45734;-73
2023/09/19 06:22:45;;;;;;;1.00;1.00;;;22.90;77.50;;;;;;5067337;28;43423;-71
2023/09/19 06:25:19;;;;;;;1.40;1.40;;;22.80;77.60;;;;;;5066537;28;43423;-72
2023/09/19 06:27:47;;;;;;;1.10;1.10;;;22.80;77.70;;;;;;5062283;28;43457;-72
2023/09/19 06:30:17;;;;;;;1.00;1.00;;;22.90;77.30;;;;;;5046332;28;45686;-72
2023/09/19 06:32:45;;;;;;;1.47;1.30;;;23.00;76.90;;;;;;5067934;28;44033;-72
2023/09/19 06:35:14;;;;;;;1.23;1.23;;;23.10;76.40;;;;;;5046780;28;43456;-72
2023/09/19 06:37:43;;;;;;;1.03;1.03;;;23.20;76.10;;;;;;5063549;28;43353;-72
2023/09/19 06:40:13;;;;;;;1.40;0.93;;;23.20;76.10;;;;;;5063505;28;43851;-71
2023/09/19 06:42:42;;;;;;;1.90;0.90;;;23.10;76.30;;;;;;5062210;28;44667;-71
2023/09/19 06:45:13;;;;;;;1.23;1.17;;;23.10;76.70;;;;;;5064867;28;43533;-72
2023/09/19 06:47:43;;;;;;;1.30;1.23;;;23.00;76.60;;;;;;5065448;28;43467;-66
2023/09/19 06:50:14;;;;;;;1.33;1.33;;;22.90;76.40;;;;;;5057902;28;43755;-70
2023/09/19 06:52:42;;;;;;;1.43;1.33;;;22.90;76.60;;;;;;5068545;28;43344;-70
2023/09/19 06:55:13;;;;;;;1.00;1.00;;;22.90;77.00;;;;;;5060734;28;43391;-70
2023/09/19 06:57:43;;;;;;;1.20;1.20;;;22.90;77.10;;;;;;5064507;28;43449;-70
2023/09/19 07:00:18;;;;;;;1.17;1.17;;;22.80;76.80;;;;;;5067650;28;43608;-69
2023/09/19 07:02:56;;;;;;;1.50;1.40;;;22.80;76.70;;;;;;5064046;28;43419;-70
2023/09/19 07:05:24;;;;;;;1.40;1.30;;;22.80;77.10;;;;;;5063372;28;43511;-70
2023/09/19 07:07:52;;;;;;;1.17;1.17;;;22.80;77.20;;;;;;5060470;28;44130;-70
2023/09/19 07:10:23;;;;;;;1.47;1.37;;;22.70;76.30;;;;;;5065499;28;44929;-70
2023/09/19 07:12:57;;;;;;;1.27;1.27;;;22.80;76.10;;;;;;5062659;28;43466;-70
2023/09/19 07:15:25;;;;;;;1.50;1.50;;;22.90;76.50;;;;;;5064843;28;43404;-70
2023/09/19 07:17:55;;;;;;;1.10;1.10;;;23.00;75.20;;;;;;5059464;28;43427;-70
2023/09/19 07:20:26;;;;;;;1.30;1.30;;;23.10;74.60;;;;;;5065685;28;46118;-70
2023/09/19 07:22:55;;;;;;;1.30;1.30;;;23.10;74.60;;;;;;5060199;28;43523;-70
2023/09/19 07:25:23;;;;;;;1.30;1.20;;;23.00;75.20;;;;;;5065802;28;43400;-74
2023/09/19 07:27:52;;;;;;;1.20;1.20;;;23.00;75.60;;;;;;5065145;28;43525;-69
2023/09/19 07:30:20;;;;;;;1.50;1.40;;;22.90;75.60;;;;;;5064818;28;43603;-69
2023/09/19 07:32:48;;;;;;;1.40;1.30;;;22.90;75.50;;;;;;5063182;28;43471;-70
2023/09/19 07:35:19;;;;;;;1.37;1.30;;;22.90;76.00;;;;;;5048672;28;43455;-70
2023/09/19 07:37:49;;;;;;;1.60;1.50;;;22.80;76.30;;;;;;5065128;28;43403;-70
2023/09/19 07:40:20;;;;;;;1.83;1.40;;;22.80;76.00;;;;;;5064713;28;43921;-69
2023/09/19 07:42:48;;;;;;;1.33;1.30;;;22.80;75.70;;;;;;5064177;28;43859;-70
2023/09/19 07:45:16;;;;;;;2.10;1.37;;;22.80;76.20;;;;;;5064442;28;43394;-71
2023/09/19 07:47:46;;;;;;;1.40;1.40;;;22.70;76.50;;;;;;5067082;28;43399;-69
2023/09/19 07:50:16;;;;;;;2.90;1.67;;;22.70;76.40;;;;;;5066678;28;43945;-70
2023/09/19 07:52:45;;;;;;;4.03;2.00;;;22.70;75.10;;;;;;5067139;28;43352;-70
2023/09/19 07:55:16;;;;;;;3.80;2.10;;;22.70;72.40;;;;;;5062271;28;43451;-70
2023/09/19 07:57:44;;;;;;;1.40;1.30;;;22.90;73.60;;;;;;5059692;28;47720;-69
2023/09/19 08:00:13;;;;;;;2.60;1.47;;;23.00;73.80;;;;;;5061962;28;43700;-70
2023/09/19 08:02:41;;;;;;;2.63;1.40;;;23.00;73.90;;;;;;5060717;28;43420;-70
2023/09/19 08:05:10;;;;;;;2.57;1.50;;;23.10;74.10;;;;;;5062200;28;43445;-70
2023/09/19 08:07:39;;;;;;;1.50;1.40;;;23.00;74.40;;;;;;5062955;28;43466;-70
2023/09/19 08:10:12;;;;;;;2.20;1.60;;;22.90;74.50;;;;;;5064830;28;44027;-70
2023/09/19 08:12:46;;;;;;;1.63;1.40;;;22.90;74.60;;;;;;5063156;28;43610;-70
2023/09/19 08:15:14;;;;;;;1.43;1.33;;;22.90;74.80;;;;;;5062640;28;43391;-70
2023/09/19 08:17:42;;;;;;;2.03;1.50;;;22.80;75.30;;;;;;5065335;28;43401;-71
2023/09/19 08:20:16;;;;;;;2.83;1.37;;;22.80;75.60;;;;;;5065677;28;44004;-71
2023/09/19 08:22:47;;;;;;;1.73;1.60;;;22.80;75.40;;;;;;5062241;28;43355;-70
2023/09/19 08:25:18;;;;;;;1.73;1.50;;;22.70;75.60;;;;;;5061811;28;43425;-71
2023/09/19 08:27:48;;;;;;;1.40;1.30;;;22.70;75.90;;;;;;5050776;28;43425;-71
2023/09/19 08:30:16;;;;;;;1.33;1.27;;;22.70;76.10;;;;;;5058069;28;43843;-70
2023/09/19 08:32:44;;;;;;;1.70;1.60;;;22.70;75.70;;;;;;5060860;28;43964;-70
2023/09/19 08:35:12;;;;;;;1.30;1.30;;;22.70;75.60;;;;;;5062140;28;43451;-71
2023/09/19 08:37:40;;;;;;;1.40;1.30;;;22.70;76.00;;;;;;5060687;28;43343;-71
2023/09/19 08:40:10;;;;;;;1.70;1.60;;;22.70;76.30;;;;;;5059381;28;44058;-70
2023/09/19 08:43:00;;;;;;;1.70;1.60;;;22.60;76.20;;;;;;5048138;28;44672;-70
2023/09/19 08:45:28;;;;;;;2.10;1.70;;;22.60;76.00;;;;;;5056814;28;44128;-71
2023/09/19 08:48:02;;;;;;;3.63;1.63;;;22.70;75.60;;;;;;5063869;28;43402;-72
2023/09/19 08:50:30;;;;;;;1.80;1.70;;;22.90;75.30;;;;;;5061849;28;43845;-73
2023/09/19 08:53:02;;;;;;;2.07;1.97;;;23.00;75.30;;;;;;5062492;28;44058;-70
2023/09/19 08:55:30;;;;;;;2.20;1.70;;;23.10;73.90;;;;;;5062493;28;43415;-70
2023/09/19 08:58:04;;;;;;;3.40;2.00;;;23.00;73.50;;;;;;5067019;28;43484;-71
2023/09/19 09:00:32;;;;;;;1.90;1.80;;;23.00;74.50;;;;;;5081823;28;43845;-71
2023/09/19 09:03:00;;;;;;;1.90;1.80;;;22.90;73.80;;;;;;5075056;28;43476;-70
2023/09/19 09:05:29;;;;;;;3.50;2.00;;;22.90;74.00;;;;;;5072301;28;43452;-70
2023/09/19 09:07:57;;;;;;;2.10;1.60;;;22.90;74.20;;;;;;5073973;28;43380;-68
2023/09/19 09:10:26;;;;;;;1.70;1.60;;;22.80;75.00;;;;;;5090524;27;43912;-69
2023/09/19 09:12:55;;;;;;;4.37;1.80;;;22.80;75.30;;;;;;5090479;28;43349;-69
2023/09/19 09:15:24;;;;;;;1.70;1.60;;;22.70;74.20;;;;;;5091390;28;43385;-69
2023/09/19 09:17:53;;;;;;;1.87;1.77;;;22.70;74.30;;;;;;5083596;28;43528;-68
2023/09/19 09:20:21;;;;;;;1.57;1.50;;;22.70;75.00;;;;;;5091936;27;43850;-69
2023/09/19 09:22:53;;;;;;;2.77;1.83;;;22.70;75.30;;;;;;5092545;28;43439;-69
2023/09/19 09:25:23;;;;;;;3.00;1.93;;;22.70;75.20;;;;;;5092431;28;43586;-68
2023/09/19 09:28:02;;;;;;;2.43;1.90;;;22.60;74.20;;;;;;5077323;28;43491;-69
2023/09/19 09:30:38;;;;;;;2.00;1.90;;;22.70;74.10;;;;;;5092866;28;43769;-68
2023/09/19 09:33:10;;;;;;;1.97;1.70;;;22.80;73.80;;;;;;5090153;28;43561;-69
2023/09/19 09:35:51;;;;;;;1.87;1.77;;;22.90;73.60;;;;;;5098917;28;43733;-68
2023/09/19 09:38:20;;;;;;;1.93;1.70;;;23.00;73.00;;;;;;5087569;28;43415;-67
2023/09/19 09:40:53;;;;;;;1.67;1.57;;;23.00;73.30;;;;;;5096301;27;43715;-68
2023/09/19 09:43:35;;;;;;;2.00;1.90;;;22.90;74.10;;;;;;5088743;28;43469;-68
2023/09/19 09:49:18;;;;;;;2.77;1.80;;;22.90;74.20;;;;;;5088538;28;43422;-68
2023/09/19 09:51:59;;;;;;;2.03;1.90;;;22.80;74.60;;;;;;5084044;28;43760;-68
2023/09/19 09:54:34;;;;;;;3.30;1.70;;;22.80;75.00;;;;;;5075038;28;44752;-67
2023/09/19 09:57:13;;;;;;;2.20;2.03;;;22.80;75.00;;;;;;5090745;28;43384;-67
2023/09/19 09:59:49;;;;;;;3.40;2.13;;;22.70;74.20;;;;;;5083719;28;43393;-69
2023/09/19 10:02:28;;;;;;;2.30;2.10;;;22.70;74.90;;;;;;5087193;28;43782;-68
2023/09/19 10:05:09;;;;;;;2.43;1.97;;;22.70;75.30;;;;;;5092704;28;43515;-68
2023/09/19 10:07:41;;;;;;;5.87;2.73;;;22.70;75.30;;;;;;5086363;27;43443;-69
2023/09/19 10:10:15;;;;;;;3.50;2.33;;;22.70;71.10;;;;;;5090194;28;43386;-68
2023/09/19 10:12:47;;;;;;;3.63;2.07;;;22.70;72.00;;;;;;5093977;28;43893;-68
2023/09/19 10:15:17;;;;;;;5.43;2.47;;;22.80;72.40;;;;;;5086350;27;43411;-68
2023/09/19 10:17:46;;;;;;;5.10;2.20;;;22.90;72.60;;;;;;5084816;28;43473;-68
2023/09/19 10:20:33;;;;;;;3.60;2.30;;;23.00;72.50;;;;;;5090159;28;43481;-68
2023/09/19 10:23:02;;;;;;;5.17;2.10;;;23.00;73.00;;;;;;5092146;27;43611;-69
2023/09/19 10:25:31;;;;;;;2.40;2.20;;;22.90;73.50;;;;;;5072775;28;44775;-68
2023/09/19 10:28:02;;;;;;;3.53;2.13;;;22.90;73.10;;;;;;5092936;28;43403;-68
2023/09/19 10:30:32;;;;;;;2.80;2.20;;;22.90;72.90;;;;;;5091958;28;43379;-68
2023/09/19 10:33:03;;;;;;;2.83;2.23;;;22.80;73.60;;;;;;5087037;28;43552;-68
2023/09/19 10:35:31;;;;;;;3.80;2.60;;;22.80;73.90;;;;;;5090056;28;43481;-68
2023/09/19 10:38:01;;;;;;;2.00;1.90;;;22.80;74.10;;;;;;5093334;28;43412;-68
2023/09/19 10:40:31;;;;;;;4.63;2.50;;;22.80;73.80;;;;;;5090517;28;43433;-68
2023/09/19 10:43:02;;;;;;;2.93;2.03;;;22.80;72.90;;;;;;5092123;28;43842;-69
2023/09/19 10:45:31;;;;;;;3.07;2.47;;;22.90;72.60;;;;;;5087588;28;43377;-68
2023/09/19 10:48:00;;;;;;;3.60;2.03;;;23.00;72.50;;;;;;5089987;28;43359;-68
2023/09/19 10:50:31;;;;;;;3.40;2.40;;;23.10;72.80;;;;;;5088594;28;43511;-67
2023/09/19 10:53:04;;;;;;;2.37;2.13;;;23.00;73.10;;;;;;5092499;28;43887;-68
2023/09/19 10:55:36;;;;;;;3.20;2.00;;;23.00;73.70;;;;;;5087255;28;43418;-69
2023/09/19 10:58:14;;;;;;;3.73;2.13;;;22.90;73.80;;;;;;5072583;28;43509;-69
2023/09/19 11:00:53;;;;;;;2.27;2.10;;;22.90;73.50;;;;;;5087040;28;43371;-68
2023/09/19 11:03:23;;;;;;;1.70;1.70;;;22.90;74.30;;;;;;5083641;28;43612;-67
2023/09/19 11:06:15;;;;;;;2.63;2.53;;;22.80;74.60;;;;;;5087275;28;44828;-68
2023/09/19 11:08:57;;;;;;;2.33;2.13;;;22.80;74.50;;;;;;5085785;28;43608;-68
2023/09/19 11:11:40;;;;;;;3.30;1.80;;;22.80;74.10;;;;;;5084954;28;43463;-68
2023/09/19 11:14:15;;;;;;;2.00;1.90;;;22.80;74.80;;;;;;5086199;28;44064;-68
2023/09/19 11:17:17;;;;;;;2.20;2.10;;;22.80;75.10;;;;;;5086238;28;43455;-68
2023/09/19 11:20:43;;;;;;;2.10;2.00;;;22.70;75.00;;;;;;5085532;28;43956;-68
2023/09/19 11:23:25;;;;;;;1.80;1.70;;;22.70;74.60;;;;;;5011959;28;43452;-69
2023/09/19 11:25:54;;;;;;;2.00;1.90;;;22.80;74.10;;;;;;5081577;28;43612;-68
2023/09/19 11:28:32;;;;;;;2.00;1.90;;;22.90;73.70;;;;;;5077165;28;43476;-66
2023/09/19 11:31:00;;;;;;;2.90;2.10;;;23.00;73.30;;;;;;5058127;28;43440;-64
2023/09/19 11:33:33;;;;;;;1.90;1.80;;;23.00;73.80;;;;;;5075475;28;43473;-65
2023/09/19 11:36:02;;;;;;;1.63;1.60;;;23.00;74.30;;;;;;5072959;28;43876;-65
2023/09/19 11:39:08;;;;;;;2.90;1.73;;;22.90;74.50;;;;;;5071791;28;43513;-66
2023/09/19 11:41:39;;;;;;;2.20;2.00;;;22.90;74.30;;;;;;5073595;28;43400;-65
2023/09/19 11:44:33;;;;;;;1.90;1.80;;;22.90;74.70;;;;;;5057033;28;43530;-65
2023/09/19 11:47:03;;;;;;;1.93;1.80;;;22.80;75.10;;;;;;5055618;28;46518;-65
2023/09/19 11:49:32;;;;;;;1.83;1.77;;;22.80;75.30;;;;;;5073220;28;44036;-65
2023/09/19 11:52:04;;;;;;;1.93;1.93;;;22.80;75.10;;;;;;5051235;28;44110;-65
2023/09/19 11:54:34;;;;;;;1.90;1.80;;;22.70;75.00;;;;;;5074341;28;43939;-65
2023/09/19 11:57:02;;;;;;;1.77;1.67;;;22.80;75.40;;;;;;5065347;28;45378;-67
2023/09/19 11:59:31;;;;;;;2.93;1.90;;;22.80;75.50;;;;;;5072768;28;43483;-66
2023/09/19 12:01:59;;;;;;;4.73;2.47;;;22.70;75.10;;;;;;5074695;28;43371;-65
2023/09/19 12:04:38;;;;;;;8.13;2.43;;;22.70;72.60;;;;;;5069413;28;43499;-66
2023/09/19 12:07:10;;;;;;;11.07;3.03;;;22.70;72.70;;;;;;5078641;28;45355;-64
2023/09/19 12:09:43;;;;;;;12.33;3.17;;;22.90;73.10;;;;;;5075598;28;43458;-65
2023/09/19 12:12:14;;;;;;;7.47;3.00;;;23.00;72.50;;;;;;5072006;28;43487;-67
2023/09/19 12:14:43;;;;;;;30.17;3.70;;;23.10;72.90;;;;;;5078496;28;44117;-65
2023/09/19 12:17:13;;;;;;;16.77;2.90;;;23.10;73.20;;;;;;5070228;28;43624;-65
2023/09/19 12:19:49;;;;;;;13.33;2.80;;;23.00;73.60;;;;;;5070729;28;43479;-66
2023/09/19 12:22:17;;;;;;;7.60;2.87;;;23.00;73.70;;;;;;5070203;28;43387;-65
2023/09/19 12:24:47;;;;;;;8.57;2.47;;;22.90;72.70;;;;;;5073535;28;43482;-65
2023/09/19 12:27:18;;;;;;;6.13;2.83;;;22.90;73.60;;;;;;5070179;28;43624;-65
2023/09/19 12:29:48;;;;;;;7.83;3.03;;;22.90;74.10;;;;;;5073845;28;44041;-65
2023/09/19 12:32:19;;;;;;;6.43;2.30;;;22.80;74.20;;;;;;5070468;28;43569;-64
2023/09/19 12:34:52;;;;;;;2.73;2.10;;;22.80;73.60;;;;;;5075923;28;44177;-66
2023/09/19 12:37:22;;;;;;;9.07;2.47;;;22.80;73.60;;;;;;5070760;28;43736;-64
2023/09/19 12:39:53;;;;;;;3.97;2.40;;;22.80;74.30;;;;;;5070332;28;43484;-65
2023/09/19 12:42:22;;;;;;;5.50;2.20;;;22.80;74.40;;;;;;5072515;28;43372;-67
2023/09/19 12:44:55;;;;;;;2.50;2.03;;;22.70;74.00;;;;;;5071381;28;43863;-65
2023/09/19 12:47:24;;;;;;;6.83;2.37;;;22.70;73.40;;;;;;5072271;28;45345;-66
2023/09/19 12:50:13;;;;;;;4.97;2.40;;;22.70;73.10;;;;;;5073336;28;43432;-65
2023/09/19 12:52:42;;;;;;;2.43;2.23;;;22.90;72.80;;;;;;5077232;28;43452;-65
2023/09/19 12:55:22;;;;;;;2.50;2.30;;;23.00;72.00;;;;;;5060348;28;43566;-63
2023/09/19 12:58:05;;;;;;;3.87;2.00;;;23.00;72.30;;;;;;5075594;28;43769;-67
2023/09/19 13:00:37;;;;;;;2.87;1.90;;;23.00;73.00;;;;;;5076426;28;43347;-63
2023/09/19 13:03:15;;;;;;;2.27;1.93;;;23.00;73.50;;;;;;5077706;28;43508;-64
2023/09/19 13:05:51;;;;;;;3.37;2.20;;;22.90;74.00;;;;;;5052924;28;43365;-64
2023/09/19 13:08:26;;;;;;;2.20;2.03;;;22.90;73.50;;;;;;5032574;28;45612;-65